sensor_id;sensor_type;location;lat;lon;timestamp;temperature;humidity
35129;DHT22;21301;43.626;10.580;2022-07-09T00:00:31;21.70;91.70
35129;DHT22;21301;43.626;10.580;2022-07-09T00:02:57;21.90;91.70
35129;DHT22;21301;43.626;10.580;2022-07-09T00:05:23;22.10;91.50
35129;DHT22;21301;43.626;10.580;2022-07-09T00:07:49;22.00;91.60
35129;DHT22;21301;43.626;10.580;2022-07-09T00:10:14;21.60;92.10
35129;DHT22;21301;43.626;10.580;2022-07-09T00:12:40;21.30;92.50
35129;DHT22;21301;43.626;10.580;2022-07-09T00:15:06;21.10;93.00
35129;DHT22;21301;43.626;10.580;2022-07-09T00:17:32;20.50;93.90
35129;DHT22;21301;43.626;10.580;2022-07-09T00:19:58;20.80;93.60
35129;DHT22;21301;43.626;10.580;2022-07-09T00:22:24;21.10;93.00
35129;DHT22;21301;43.626;10.580;2022-07-09T00:24:50;21.30;92.60
35129;DHT22;21301;43.626;10.580;2022-07-09T00:27:16;21.60;92.20
35129;DHT22;21301;43.626;10.580;2022-07-09T00:29:42;21.90;92.00
35129;DHT22;21301;43.626;10.580;2022-07-09T00:32:08;21.90;91.90
35129;DHT22;21301;43.626;10.580;2022-07-09T00:34:33;21.90;91.80
35129;DHT22;21301;43.626;10.580;2022-07-09T00:36:59;21.90;91.80
35129;DHT22;21301;43.626;10.580;2022-07-09T00:39:26;21.90;91.80
35129;DHT22;21301;43.626;10.580;2022-07-09T00:42:05;21.80;91.80
35129;DHT22;21301;43.626;10.580;2022-07-09T00:44:31;21.80;92.10
35129;DHT22;21301;43.626;10.580;2022-07-09T00:46:57;21.80;92.00
35129;DHT22;21301;43.626;10.580;2022-07-09T00:49:25;21.80;92.00
35129;DHT22;21301;43.626;10.580;2022-07-09T00:51:52;21.80;92.00
35129;DHT22;21301;43.626;10.580;2022-07-09T00:54:18;21.90;92.00
35129;DHT22;21301;43.626;10.580;2022-07-09T00:56:44;22.00;92.00
35129;DHT22;21301;43.626;10.580;2022-07-09T00:59:10;21.90;92.00
35129;DHT22;21301;43.626;10.580;2022-07-09T01:01:41;21.90;92.00
35129;DHT22;21301;43.626;10.580;2022-07-09T01:04:07;21.80;92.00
35129;DHT22;21301;43.626;10.580;2022-07-09T01:06:33;21.80;92.10
35129;DHT22;21301;43.626;10.580;2022-07-09T01:09:03;21.60;92.50
35129;DHT22;21301;43.626;10.580;2022-07-09T01:11:29;21.30;93.10
35129;DHT22;21301;43.626;10.580;2022-07-09T01:13:55;21.00;93.70
35129;DHT22;21301;43.626;10.580;2022-07-09T01:16:21;20.80;94.20
35129;DHT22;21301;43.626;10.580;2022-07-09T01:18:47;20.70;94.50
35129;DHT22;21301;43.626;10.580;2022-07-09T01:21:14;20.20;95.10
35129;DHT22;21301;43.626;10.580;2022-07-09T01:23:40;20.20;95.60
35129;DHT22;21301;43.626;10.580;2022-07-09T01:26:07;20.20;95.90
35129;DHT22;21301;43.626;10.580;2022-07-09T01:28:33;20.10;95.90
35129;DHT22;21301;43.626;10.580;2022-07-09T01:30:59;20.10;96.10
35129;DHT22;21301;43.626;10.580;2022-07-09T01:33:27;20.10;96.00
35129;DHT22;21301;43.626;10.580;2022-07-09T01:35:53;20.20;95.90
35129;DHT22;21301;43.626;10.580;2022-07-09T01:38:19;20.20;96.00
35129;DHT22;21301;43.626;10.580;2022-07-09T01:40:45;20.20;96.10
35129;DHT22;21301;43.626;10.580;2022-07-09T01:43:10;20.10;96.30
35129;DHT22;21301;43.626;10.580;2022-07-09T01:45:38;20.00;96.50
35129;DHT22;21301;43.626;10.580;2022-07-09T01:48:04;20.10;96.60
35129;DHT22;21301;43.626;10.580;2022-07-09T01:50:30;20.00;96.50
35129;DHT22;21301;43.626;10.580;2022-07-09T01:52:56;20.10;96.20
35129;DHT22;21301;43.626;10.580;2022-07-09T01:55:21;20.20;96.10
35129;DHT22;21301;43.626;10.580;2022-07-09T01:57:47;20.20;96.10
35129;DHT22;21301;43.626;10.580;2022-07-09T02:00:13;20.10;96.10
35129;DHT22;21301;43.626;10.580;2022-07-09T02:02:42;20.20;96.20
35129;DHT22;21301;43.626;10.580;2022-07-09T02:05:08;20.10;96.10
35129;DHT22;21301;43.626;10.580;2022-07-09T02:07:33;20.20;96.30
35129;DHT22;21301;43.626;10.580;2022-07-09T02:09:59;20.30;96.30
35129;DHT22;21301;43.626;10.580;2022-07-09T02:12:25;20.30;96.20
35129;DHT22;21301;43.626;10.580;2022-07-09T02:14:51;20.40;96.10
35129;DHT22;21301;43.626;10.580;2022-07-09T02:17:17;20.60;95.90
35129;DHT22;21301;43.626;10.580;2022-07-09T02:19:43;20.60;95.90
35129;DHT22;21301;43.626;10.580;2022-07-09T02:22:08;20.70;95.90
35129;DHT22;21301;43.626;10.580;2022-07-09T02:24:34;20.50;95.90
35129;DHT22;21301;43.626;10.580;2022-07-09T02:27:00;20.30;96.00
35129;DHT22;21301;43.626;10.580;2022-07-09T02:29:26;20.10;96.30
35129;DHT22;21301;43.626;10.580;2022-07-09T02:31:52;20.00;96.30
35129;DHT22;21301;43.626;10.580;2022-07-09T02:34:21;19.90;96.50
35129;DHT22;21301;43.626;10.580;2022-07-09T02:36:47;19.90;96.60
35129;DHT22;21301;43.626;10.580;2022-07-09T02:39:13;19.90;96.60
35129;DHT22;21301;43.626;10.580;2022-07-09T02:41:38;20.00;96.40
35129;DHT22;21301;43.626;10.580;2022-07-09T02:44:04;20.00;96.40
35129;DHT22;21301;43.626;10.580;2022-07-09T02:46:30;20.00;96.40
35129;DHT22;21301;43.626;10.580;2022-07-09T02:48:56;20.00;96.40
35129;DHT22;21301;43.626;10.580;2022-07-09T02:51:22;20.10;96.40
35129;DHT22;21301;43.626;10.580;2022-07-09T02:53:47;20.20;96.20
35129;DHT22;21301;43.626;10.580;2022-07-09T02:56:13;20.30;96.20
35129;DHT22;21301;43.626;10.580;2022-07-09T02:58:39;20.30;95.90
35129;DHT22;21301;43.626;10.580;2022-07-09T03:01:05;20.30;96.00
35129;DHT22;21301;43.626;10.580;2022-07-09T03:03:32;20.10;96.30
35129;DHT22;21301;43.626;10.580;2022-07-09T03:06:02;20.00;96.50
35129;DHT22;21301;43.626;10.580;2022-07-09T03:08:28;19.80;96.80
35129;DHT22;21301;43.626;10.580;2022-07-09T03:10:54;19.60;97.00
35129;DHT22;21301;43.626;10.580;2022-07-09T03:13:20;19.60;97.10
35129;DHT22;21301;43.626;10.580;2022-07-09T03:15:46;19.70;97.00
35129;DHT22;21301;43.626;10.580;2022-07-09T03:18:11;19.70;97.00
35129;DHT22;21301;43.626;10.580;2022-07-09T03:20:37;19.80;96.80
35129;DHT22;21301;43.626;10.580;2022-07-09T03:23:04;19.80;96.70
35129;DHT22;21301;43.626;10.580;2022-07-09T03:25:30;19.90;96.60
35129;DHT22;21301;43.626;10.580;2022-07-09T03:27:56;20.00;96.40
35129;DHT22;21301;43.626;10.580;2022-07-09T03:30:22;20.00;96.30
35129;DHT22;21301;43.626;10.580;2022-07-09T03:32:49;19.90;96.80
35129;DHT22;21301;43.626;10.580;2022-07-09T03:35:16;19.70;97.10
35129;DHT22;21301;43.626;10.580;2022-07-09T03:37:41;19.70;97.30
35129;DHT22;21301;43.626;10.580;2022-07-09T03:40:08;19.60;97.50
35129;DHT22;21301;43.626;10.580;2022-07-09T03:42:34;19.50;97.90
35129;DHT22;21301;43.626;10.580;2022-07-09T03:45:00;19.40;97.80
35129;DHT22;21301;43.626;10.580;2022-07-09T03:47:26;19.30;98.10
35129;DHT22;21301;43.626;10.580;2022-07-09T03:49:52;19.30;98.00
35129;DHT22;21301;43.626;10.580;2022-07-09T03:52:18;19.30;98.00
35129;DHT22;21301;43.626;10.580;2022-07-09T03:54:44;19.20;98.40
35129;DHT22;21301;43.626;10.580;2022-07-09T03:57:10;19.20;98.70
35129;DHT22;21301;43.626;10.580;2022-07-09T03:59:36;19.10;98.70
35129;DHT22;21301;43.626;10.580;2022-07-09T04:02:02;19.10;99.00
35129;DHT22;21301;43.626;10.580;2022-07-09T04:04:29;19.20;99.10
35129;DHT22;21301;43.626;10.580;2022-07-09T04:06:54;19.20;99.10
35129;DHT22;21301;43.626;10.580;2022-07-09T04:09:21;19.40;98.90
35129;DHT22;21301;43.626;10.580;2022-07-09T04:11:47;19.60;98.70
35129;DHT22;21301;43.626;10.580;2022-07-09T04:14:13;19.70;98.60
35129;DHT22;21301;43.626;10.580;2022-07-09T04:16:40;19.80;98.70
35129;DHT22;21301;43.626;10.580;2022-07-09T04:19:06;19.80;98.80
35129;DHT22;21301;43.626;10.580;2022-07-09T04:21:32;19.70;99.00
35129;DHT22;21301;43.626;10.580;2022-07-09T04:23:58;19.80;99.10
35129;DHT22;21301;43.626;10.580;2022-07-09T04:26:25;20.00;99.00
35129;DHT22;21301;43.626;10.580;2022-07-09T04:28:51;20.10;98.70
35129;DHT22;21301;43.626;10.580;2022-07-09T04:31:17;20.30;98.40
35129;DHT22;21301;43.626;10.580;2022-07-09T04:33:45;20.40;98.40
35129;DHT22;21301;43.626;10.580;2022-07-09T04:36:10;20.50;98.00
35129;DHT22;21301;43.626;10.580;2022-07-09T04:38:37;20.40;98.00
35129;DHT22;21301;43.626;10.580;2022-07-09T04:41:03;20.50;97.80
35129;DHT22;21301;43.626;10.580;2022-07-09T04:43:29;20.70;97.60
35129;DHT22;21301;43.626;10.580;2022-07-09T04:45:55;20.80;97.40
35129;DHT22;21301;43.626;10.580;2022-07-09T04:48:21;20.80;97.30
35129;DHT22;21301;43.626;10.580;2022-07-09T04:50:47;21.00;97.20
35129;DHT22;21301;43.626;10.580;2022-07-09T04:53:13;21.20;97.00
35129;DHT22;21301;43.626;10.580;2022-07-09T04:55:39;21.30;96.90
35129;DHT22;21301;43.626;10.580;2022-07-09T04:58:04;21.30;96.80
35129;DHT22;21301;43.626;10.580;2022-07-09T05:00:30;21.50;96.70
35129;DHT22;21301;43.626;10.580;2022-07-09T05:02:56;21.60;96.50
35129;DHT22;21301;43.626;10.580;2022-07-09T05:05:22;21.90;96.40
35129;DHT22;21301;43.626;10.580;2022-07-09T05:07:49;22.00;96.30
35129;DHT22;21301;43.626;10.580;2022-07-09T05:10:14;22.20;96.10
35129;DHT22;21301;43.626;10.580;2022-07-09T05:12:41;22.40;96.10
35129;DHT22;21301;43.626;10.580;2022-07-09T05:15:09;22.30;96.00
35129;DHT22;21301;43.626;10.580;2022-07-09T05:17:37;22.20;96.10
35129;DHT22;21301;43.626;10.580;2022-07-09T05:20:07;22.30;96.20
35129;DHT22;21301;43.626;10.580;2022-07-09T05:22:34;22.40;96.20
35129;DHT22;21301;43.626;10.580;2022-07-09T05:25:00;22.50;96.20
35129;DHT22;21301;43.626;10.580;2022-07-09T05:27:26;22.80;96.00
35129;DHT22;21301;43.626;10.580;2022-07-09T05:29:53;23.00;95.90
35129;DHT22;21301;43.626;10.580;2022-07-09T05:32:19;23.50;95.60
35129;DHT22;21301;43.626;10.580;2022-07-09T05:34:45;23.80;95.10
35129;DHT22;21301;43.626;10.580;2022-07-09T05:37:11;23.90;94.90
35129;DHT22;21301;43.626;10.580;2022-07-09T05:39:37;23.90;94.70
35129;DHT22;21301;43.626;10.580;2022-07-09T05:42:03;23.90;94.70
35129;DHT22;21301;43.626;10.580;2022-07-09T05:44:30;23.80;94.80
35129;DHT22;21301;43.626;10.580;2022-07-09T05:46:56;23.70;94.70
35129;DHT22;21301;43.626;10.580;2022-07-09T05:49:22;23.80;94.80
35129;DHT22;21301;43.626;10.580;2022-07-09T05:51:48;23.80;94.70
35129;DHT22;21301;43.626;10.580;2022-07-09T05:54:14;24.20;94.50
35129;DHT22;21301;43.626;10.580;2022-07-09T05:56:41;24.70;94.00
35129;DHT22;21301;43.626;10.580;2022-07-09T05:59:07;24.60;93.70
35129;DHT22;21301;43.626;10.580;2022-07-09T06:01:34;24.50;93.50
35129;DHT22;21301;43.626;10.580;2022-07-09T06:04:05;24.70;93.20
35129;DHT22;21301;43.626;10.580;2022-07-09T06:06:31;24.90;93.00
35129;DHT22;21301;43.626;10.580;2022-07-09T06:08:57;25.20;92.60
35129;DHT22;21301;43.626;10.580;2022-07-09T06:11:23;25.10;92.30
35129;DHT22;21301;43.626;10.580;2022-07-09T06:13:48;25.30;92.50
35129;DHT22;21301;43.626;10.580;2022-07-09T06:16:14;25.70;92.50
35129;DHT22;21301;43.626;10.580;2022-07-09T06:18:40;25.90;92.40
35129;DHT22;21301;43.626;10.580;2022-07-09T06:21:06;26.00;92.10
35129;DHT22;21301;43.626;10.580;2022-07-09T06:23:32;26.30;91.80
35129;DHT22;21301;43.626;10.580;2022-07-09T06:25:58;26.40;91.40
35129;DHT22;21301;43.626;10.580;2022-07-09T06:28:24;26.50;90.90
35129;DHT22;21301;43.626;10.580;2022-07-09T06:30:50;26.30;90.40
35129;DHT22;21301;43.626;10.580;2022-07-09T06:33:16;26.40;90.40
35129;DHT22;21301;43.626;10.580;2022-07-09T06:35:42;26.60;90.50
35129;DHT22;21301;43.626;10.580;2022-07-09T06:38:08;26.80;90.40
35129;DHT22;21301;43.626;10.580;2022-07-09T06:40:34;27.20;90.40
35129;DHT22;21301;43.626;10.580;2022-07-09T06:43:00;27.50;90.10
35129;DHT22;21301;43.626;10.580;2022-07-09T06:45:34;27.80;89.90
35129;DHT22;21301;43.626;10.580;2022-07-09T06:48:00;28.10;89.50
35129;DHT22;21301;43.626;10.580;2022-07-09T06:50:26;28.00;88.90
35129;DHT22;21301;43.626;10.580;2022-07-09T06:52:53;28.10;89.00
35129;DHT22;21301;43.626;10.580;2022-07-09T06:55:19;28.40;88.90
35129;DHT22;21301;43.626;10.580;2022-07-09T06:57:45;28.80;88.00
35129;DHT22;21301;43.626;10.580;2022-07-09T07:00:11;28.70;87.60
35129;DHT22;21301;43.626;10.580;2022-07-09T07:02:37;28.60;87.80
35129;DHT22;21301;43.626;10.580;2022-07-09T07:05:03;28.80;87.80
35129;DHT22;21301;43.626;10.580;2022-07-09T07:07:30;28.90;87.70
35129;DHT22;21301;43.626;10.580;2022-07-09T07:09:56;28.90;87.50
35129;DHT22;21301;43.626;10.580;2022-07-09T07:12:22;28.80;87.60
35129;DHT22;21301;43.626;10.580;2022-07-09T07:14:48;28.50;87.80
35129;DHT22;21301;43.626;10.580;2022-07-09T07:17:14;28.40;87.50
35129;DHT22;21301;43.626;10.580;2022-07-09T07:19:39;28.80;87.60
35129;DHT22;21301;43.626;10.580;2022-07-09T07:22:05;28.70;87.70
35129;DHT22;21301;43.626;10.580;2022-07-09T07:24:31;29.00;87.60
35129;DHT22;21301;43.626;10.580;2022-07-09T07:26:57;29.10;87.30
35129;DHT22;21301;43.626;10.580;2022-07-09T07:29:24;29.70;86.90
35129;DHT22;21301;43.626;10.580;2022-07-09T07:31:50;29.50;86.60
35129;DHT22;21301;43.626;10.580;2022-07-09T07:34:16;29.20;86.50
35129;DHT22;21301;43.626;10.580;2022-07-09T07:36:43;29.00;86.40
35129;DHT22;21301;43.626;10.580;2022-07-09T07:39:09;28.80;86.50
35129;DHT22;21301;43.626;10.580;2022-07-09T07:41:35;28.70;86.80
35129;DHT22;21301;43.626;10.580;2022-07-09T07:44:00;29.00;86.40
35129;DHT22;21301;43.626;10.580;2022-07-09T07:46:26;28.70;86.80
35129;DHT22;21301;43.626;10.580;2022-07-09T07:48:52;28.70;86.60
35129;DHT22;21301;43.626;10.580;2022-07-09T07:51:18;28.90;86.60
35129;DHT22;21301;43.626;10.580;2022-07-09T07:53:43;28.70;86.70
35129;DHT22;21301;43.626;10.580;2022-07-09T07:56:10;29.00;86.70
35129;DHT22;21301;43.626;10.580;2022-07-09T07:58:36;29.10;86.20
35129;DHT22;21301;43.626;10.580;2022-07-09T08:01:02;29.30;86.40
35129;DHT22;21301;43.626;10.580;2022-07-09T08:03:28;29.70;86.10
35129;DHT22;21301;43.626;10.580;2022-07-09T08:05:54;29.60;86.00
35129;DHT22;21301;43.626;10.580;2022-07-09T08:08:19;30.10;86.00
35129;DHT22;21301;43.626;10.580;2022-07-09T08:10:47;30.70;85.60
35129;DHT22;21301;43.626;10.580;2022-07-09T08:13:15;30.20;85.20
35129;DHT22;21301;43.626;10.580;2022-07-09T08:15:41;30.20;85.40
35129;DHT22;21301;43.626;10.580;2022-07-09T08:18:07;30.20;85.20
35129;DHT22;21301;43.626;10.580;2022-07-09T08:20:38;30.10;85.30
35129;DHT22;21301;43.626;10.580;2022-07-09T08:23:05;30.20;85.10
35129;DHT22;21301;43.626;10.580;2022-07-09T08:25:31;30.30;85.30
35129;DHT22;21301;43.626;10.580;2022-07-09T08:27:57;30.70;85.50
35129;DHT22;21301;43.626;10.580;2022-07-09T08:30:23;30.30;84.50
35129;DHT22;21301;43.626;10.580;2022-07-09T08:32:48;30.60;84.50
35129;DHT22;21301;43.626;10.580;2022-07-09T08:35:14;30.80;84.50
35129;DHT22;21301;43.626;10.580;2022-07-09T08:37:40;31.00;84.30
35129;DHT22;21301;43.626;10.580;2022-07-09T08:40:07;31.10;84.30
35129;DHT22;21301;43.626;10.580;2022-07-09T08:42:33;31.10;84.10
35129;DHT22;21301;43.626;10.580;2022-07-09T08:44:59;31.10;84.80
35129;DHT22;21301;43.626;10.580;2022-07-09T08:47:25;31.20;83.90
35129;DHT22;21301;43.626;10.580;2022-07-09T08:49:55;31.20;83.60
35129;DHT22;21301;43.626;10.580;2022-07-09T08:52:23;31.60;83.30
35129;DHT22;21301;43.626;10.580;2022-07-09T08:54:52;31.50;83.30
35129;DHT22;21301;43.626;10.580;2022-07-09T08:57:18;31.30;82.90
35129;DHT22;21301;43.626;10.580;2022-07-09T08:59:43;31.10;82.90
35129;DHT22;21301;43.626;10.580;2022-07-09T09:02:09;31.60;82.90
35129;DHT22;21301;43.626;10.580;2022-07-09T09:04:36;31.90;82.70
35129;DHT22;21301;43.626;10.580;2022-07-09T09:07:25;31.90;82.20
35129;DHT22;21301;43.626;10.580;2022-07-09T09:09:54;31.40;81.00
35129;DHT22;21301;43.626;10.580;2022-07-09T09:12:27;31.70;82.00
35129;DHT22;21301;43.626;10.580;2022-07-09T09:14:53;32.50;81.40
35129;DHT22;21301;43.626;10.580;2022-07-09T09:17:19;32.10;81.80
35129;DHT22;21301;43.626;10.580;2022-07-09T09:19:45;31.60;81.40
35129;DHT22;21301;43.626;10.580;2022-07-09T09:22:15;31.00;82.10
35129;DHT22;21301;43.626;10.580;2022-07-09T09:24:41;30.80;81.80
35129;DHT22;21301;43.626;10.580;2022-07-09T09:27:08;31.00;82.50
35129;DHT22;21301;43.626;10.580;2022-07-09T09:29:34;31.30;82.20
35129;DHT22;21301;43.626;10.580;2022-07-09T09:32:11;31.40;81.80
35129;DHT22;21301;43.626;10.580;2022-07-09T09:34:37;31.40;80.70
35129;DHT22;21301;43.626;10.580;2022-07-09T09:37:07;31.60;81.00
35129;DHT22;21301;43.626;10.580;2022-07-09T09:39:34;31.50;80.10
35129;DHT22;21301;43.626;10.580;2022-07-09T09:42:02;31.90;79.70
35129;DHT22;21301;43.626;10.580;2022-07-09T09:44:33;32.20;79.50
35129;DHT22;21301;43.626;10.580;2022-07-09T09:47:04;32.10;78.80
35129;DHT22;21301;43.626;10.580;2022-07-09T09:49:30;32.20;79.10
35129;DHT22;21301;43.626;10.580;2022-07-09T09:52:05;31.90;78.20
35129;DHT22;21301;43.626;10.580;2022-07-09T09:54:40;32.00;77.30
35129;DHT22;21301;43.626;10.580;2022-07-09T09:57:09;32.20;76.90
35129;DHT22;21301;43.626;10.580;2022-07-09T09:59:40;32.30;77.60
35129;DHT22;21301;43.626;10.580;2022-07-09T10:02:09;32.40;76.70
35129;DHT22;21301;43.626;10.580;2022-07-09T10:04:43;32.50;77.30
35129;DHT22;21301;43.626;10.580;2022-07-09T10:07:11;33.10;76.10
35129;DHT22;21301;43.626;10.580;2022-07-09T10:09:38;33.30;76.60
35129;DHT22;21301;43.626;10.580;2022-07-09T10:12:04;33.10;77.00
35129;DHT22;21301;43.626;10.580;2022-07-09T10:14:33;33.30;76.70
35129;DHT22;21301;43.626;10.580;2022-07-09T10:17:15;33.20;75.60
35129;DHT22;21301;43.626;10.580;2022-07-09T10:20:11;32.90;74.40
35129;DHT22;21301;43.626;10.580;2022-07-09T10:22:48;33.00;74.60
35129;DHT22;21301;43.626;10.580;2022-07-09T10:25:27;33.20;75.00
35129;DHT22;21301;43.626;10.580;2022-07-09T10:27:53;33.20;74.10
35129;DHT22;21301;43.626;10.580;2022-07-09T10:33:09;33.00;74.70
35129;DHT22;21301;43.626;10.580;2022-07-09T10:35:47;33.50;74.00
35129;DHT22;21301;43.626;10.580;2022-07-09T10:38:14;33.30;74.70
35129;DHT22;21301;43.626;10.580;2022-07-09T10:40:45;33.30;74.90
35129;DHT22;21301;43.626;10.580;2022-07-09T10:43:12;33.30;75.00
35129;DHT22;21301;43.626;10.580;2022-07-09T10:45:43;33.20;75.50
35129;DHT22;21301;43.626;10.580;2022-07-09T10:48:11;33.60;74.10
35129;DHT22;21301;43.626;10.580;2022-07-09T10:50:42;33.20;75.10
35129;DHT22;21301;43.626;10.580;2022-07-09T10:53:09;33.10;74.10
35129;DHT22;21301;43.626;10.580;2022-07-09T10:55:35;32.80;74.80
35129;DHT22;21301;43.626;10.580;2022-07-09T10:58:01;33.20;75.40
35129;DHT22;21301;43.626;10.580;2022-07-09T11:00:33;33.50;75.40
35129;DHT22;21301;43.626;10.580;2022-07-09T11:03:01;33.40;75.50
35129;DHT22;21301;43.626;10.580;2022-07-09T11:05:31;33.20;74.90
35129;DHT22;21301;43.626;10.580;2022-07-09T11:07:59;32.90;75.10
35129;DHT22;21301;43.626;10.580;2022-07-09T11:10:26;33.20;75.00
35129;DHT22;21301;43.626;10.580;2022-07-09T11:12:57;32.90;74.90
35129;DHT22;21301;43.626;10.580;2022-07-09T11:15:25;33.40;75.30
35129;DHT22;21301;43.626;10.580;2022-07-09T11:20:29;34.00;75.40
35129;DHT22;21301;43.626;10.580;2022-07-09T11:22:56;33.80;74.60
35129;DHT22;21301;43.626;10.580;2022-07-09T11:25:23;34.00;74.20
35129;DHT22;21301;43.626;10.580;2022-07-09T11:27:56;34.10;74.10
35129;DHT22;21301;43.626;10.580;2022-07-09T11:30:23;33.70;74.20
35129;DHT22;21301;43.626;10.580;2022-07-09T11:32:49;33.20;74.50
35129;DHT22;21301;43.626;10.580;2022-07-09T11:35:29;33.00;75.30
35129;DHT22;21301;43.626;10.580;2022-07-09T11:37:57;33.40;75.40
35129;DHT22;21301;43.626;10.580;2022-07-09T11:40:23;33.70;75.00
35129;DHT22;21301;43.626;10.580;2022-07-09T11:42:50;34.10;74.80
35129;DHT22;21301;43.626;10.580;2022-07-09T11:45:27;33.50;74.10
35129;DHT22;21301;43.626;10.580;2022-07-09T11:48:06;33.50;74.60
35129;DHT22;21301;43.626;10.580;2022-07-09T11:50:33;33.20;73.80
35129;DHT22;21301;43.626;10.580;2022-07-09T11:53:06;32.90;74.60
35129;DHT22;21301;43.626;10.580;2022-07-09T11:55:32;33.40;75.00
35129;DHT22;21301;43.626;10.580;2022-07-09T11:58:07;33.80;74.90
35129;DHT22;21301;43.626;10.580;2022-07-09T12:00:35;33.70;74.00
35129;DHT22;21301;43.626;10.580;2022-07-09T12:03:05;33.70;74.80
35129;DHT22;21301;43.626;10.580;2022-07-09T12:05:36;33.80;74.50
35129;DHT22;21301;43.626;10.580;2022-07-09T12:08:05;34.00;73.70
35129;DHT22;21301;43.626;10.580;2022-07-09T12:10:36;34.00;74.70
35129;DHT22;21301;43.626;10.580;2022-07-09T12:13:04;34.00;75.20
35129;DHT22;21301;43.626;10.580;2022-07-09T12:15:30;34.00;75.20
35129;DHT22;21301;43.626;10.580;2022-07-09T12:18:00;33.70;75.50
35129;DHT22;21301;43.626;10.580;2022-07-09T12:20:31;34.10;74.30
35129;DHT22;21301;43.626;10.580;2022-07-09T12:22:58;33.80;74.30
35129;DHT22;21301;43.626;10.580;2022-07-09T12:25:24;33.60;74.40
35129;DHT22;21301;43.626;10.580;2022-07-09T12:27:50;33.40;74.50
35129;DHT22;21301;43.626;10.580;2022-07-09T12:30:17;33.30;74.80
35129;DHT22;21301;43.626;10.580;2022-07-09T12:32:43;33.20;74.90
35129;DHT22;21301;43.626;10.580;2022-07-09T12:35:09;33.30;75.00
35129;DHT22;21301;43.626;10.580;2022-07-09T12:37:39;33.20;75.40
35129;DHT22;21301;43.626;10.580;2022-07-09T12:40:06;33.30;75.40
35129;DHT22;21301;43.626;10.580;2022-07-09T12:42:32;32.90;75.40
35129;DHT22;21301;43.626;10.580;2022-07-09T12:44:58;33.40;75.70
35129;DHT22;21301;43.626;10.580;2022-07-09T12:47:24;33.60;74.80
35129;DHT22;21301;43.626;10.580;2022-07-09T12:49:50;34.00;75.00
35129;DHT22;21301;43.626;10.580;2022-07-09T12:52:16;33.80;74.50
35129;DHT22;21301;43.626;10.580;2022-07-09T12:54:42;33.50;74.20
35129;DHT22;21301;43.626;10.580;2022-07-09T12:57:09;33.20;74.50
35129;DHT22;21301;43.626;10.580;2022-07-09T12:59:35;33.00;74.80
35129;DHT22;21301;43.626;10.580;2022-07-09T13:02:02;32.90;75.40
35129;DHT22;21301;43.626;10.580;2022-07-09T13:04:28;32.50;75.30
35129;DHT22;21301;43.626;10.580;2022-07-09T13:06:53;32.60;75.70
35129;DHT22;21301;43.626;10.580;2022-07-09T13:09:19;32.50;75.70
35129;DHT22;21301;43.626;10.580;2022-07-09T13:11:46;32.60;75.80
35129;DHT22;21301;43.626;10.580;2022-07-09T13:14:13;32.70;74.90
35129;DHT22;21301;43.626;10.580;2022-07-09T13:16:39;32.70;75.40
35129;DHT22;21301;43.626;10.580;2022-07-09T13:19:05;32.40;75.00
35129;DHT22;21301;43.626;10.580;2022-07-09T13:21:31;32.80;75.30
35129;DHT22;21301;43.626;10.580;2022-07-09T13:23:57;33.00;74.30
35129;DHT22;21301;43.626;10.580;2022-07-09T13:26:23;32.70;74.10
35129;DHT22;21301;43.626;10.580;2022-07-09T13:28:49;32.90;74.20
35129;DHT22;21301;43.626;10.580;2022-07-09T13:31:15;32.90;73.90
35129;DHT22;21301;43.626;10.580;2022-07-09T13:33:41;33.20;74.10
35129;DHT22;21301;43.626;10.580;2022-07-09T13:36:07;33.50;74.10
35129;DHT22;21301;43.626;10.580;2022-07-09T13:38:34;33.20;73.70
35129;DHT22;21301;43.626;10.580;2022-07-09T13:41:01;33.00;73.00
35129;DHT22;21301;43.626;10.580;2022-07-09T13:43:27;32.90;73.40
35129;DHT22;21301;43.626;10.580;2022-07-09T13:45:58;33.00;74.20
35129;DHT22;21301;43.626;10.580;2022-07-09T13:48:25;32.90;73.90
35129;DHT22;21301;43.626;10.580;2022-07-09T13:50:51;32.90;73.90
35129;DHT22;21301;43.626;10.580;2022-07-09T13:53:17;32.80;73.50
35129;DHT22;21301;43.626;10.580;2022-07-09T13:55:44;32.40;73.40
35129;DHT22;21301;43.626;10.580;2022-07-09T13:58:10;32.70;73.80
35129;DHT22;21301;43.626;10.580;2022-07-09T14:00:36;32.30;73.50
35129;DHT22;21301;43.626;10.580;2022-07-09T14:03:02;32.20;73.70
35129;DHT22;21301;43.626;10.580;2022-07-09T14:05:28;32.10;73.60
35129;DHT22;21301;43.626;10.580;2022-07-09T14:07:54;32.40;73.90
35129;DHT22;21301;43.626;10.580;2022-07-09T14:10:22;32.30;73.60
35129;DHT22;21301;43.626;10.580;2022-07-09T14:12:48;32.30;74.40
35129;DHT22;21301;43.626;10.580;2022-07-09T14:15:14;32.20;73.50
35129;DHT22;21301;43.626;10.580;2022-07-09T14:17:40;31.90;73.60
35129;DHT22;21301;43.626;10.580;2022-07-09T14:20:07;32.00;74.40
35129;DHT22;21301;43.626;10.580;2022-07-09T14:22:33;32.30;74.60
35129;DHT22;21301;43.626;10.580;2022-07-09T14:25:00;32.60;74.20
35129;DHT22;21301;43.626;10.580;2022-07-09T14:27:26;32.70;73.80
35129;DHT22;21301;43.626;10.580;2022-07-09T14:29:52;32.30;73.80
35129;DHT22;21301;43.626;10.580;2022-07-09T14:32:18;32.10;74.10
35129;DHT22;21301;43.626;10.580;2022-07-09T14:34:44;31.80;73.90
35129;DHT22;21301;43.626;10.580;2022-07-09T14:37:10;31.90;74.20
35129;DHT22;21301;43.626;10.580;2022-07-09T14:39:36;31.50;73.70
35129;DHT22;21301;43.626;10.580;2022-07-09T14:42:02;31.50;74.50
35129;DHT22;21301;43.626;10.580;2022-07-09T14:44:27;31.30;73.60
35129;DHT22;21301;43.626;10.580;2022-07-09T14:46:56;31.40;74.60
35129;DHT22;21301;43.626;10.580;2022-07-09T14:49:25;31.20;74.30
35129;DHT22;21301;43.626;10.580;2022-07-09T14:51:51;31.30;74.80
35129;DHT22;21301;43.626;10.580;2022-07-09T14:54:17;31.20;74.80
35129;DHT22;21301;43.626;10.580;2022-07-09T14:56:43;31.10;75.30
35129;DHT22;21301;43.626;10.580;2022-07-09T14:59:09;31.20;75.70
35129;DHT22;21301;43.626;10.580;2022-07-09T15:01:38;31.40;75.50
35129;DHT22;21301;43.626;10.580;2022-07-09T15:04:04;31.20;74.70
35129;DHT22;21301;43.626;10.580;2022-07-09T15:06:30;31.00;75.80
35129;DHT22;21301;43.626;10.580;2022-07-09T15:08:55;30.90;75.10
35129;DHT22;21301;43.626;10.580;2022-07-09T15:11:21;31.00;75.50
35129;DHT22;21301;43.626;10.580;2022-07-09T15:13:47;31.20;76.00
35129;DHT22;21301;43.626;10.580;2022-07-09T15:16:13;31.00;75.90
35129;DHT22;21301;43.626;10.580;2022-07-09T15:18:39;31.10;76.60